createdAt,value
2022-09-12T00:04:00.370Z,15.00
2022-09-12T00:10:02.036Z,14.90
2022-09-12T00:16:05.025Z,14.90
2022-09-12T00:22:06.728Z,15.10
2022-09-12T00:28:08.372Z,15.00
2022-09-12T00:34:10.442Z,14.80
2022-09-12T00:40:12.152Z,14.80
2022-09-12T00:46:27.968Z,14.80
2022-09-12T00:52:52.280Z,14.70
2022-09-12T00:59:05.089Z,14.90
2022-09-12T01:05:08.182Z,14.80
2022-09-12T01:11:10.957Z,14.80
2022-09-12T01:17:14.942Z,14.80
2022-09-12T01:23:55.364Z,14.60
2022-09-12T01:30:18.066Z,14.60
2022-09-12T01:36:32.436Z,14.40
2022-09-12T01:43:07.490Z,14.40
2022-09-12T01:49:19.837Z,14.50
2022-09-12T01:55:30.123Z,14.50
2022-09-12T02:01:35.303Z,14.30
2022-09-12T02:07:53.342Z,14.20
2022-09-12T02:14:10.372Z,14.10
2022-09-12T02:20:37.400Z,14.20
2022-09-12T02:26:52.582Z,14.30
2022-09-12T02:33:20.323Z,14.30
2022-09-12T02:39:22.273Z,14.20
2022-09-12T02:45:24.220Z,14.10
2022-09-12T02:51:27.038Z,14.00
2022-09-12T02:57:28.696Z,14.00
2022-09-12T03:03:38.231Z,13.90
2022-09-12T03:09:58.967Z,13.90
2022-09-12T03:16:15.559Z,13.90
2022-09-12T03:22:54.890Z,13.80
2022-09-12T03:28:57.592Z,13.80
2022-09-12T03:34:59.263Z,13.90
2022-09-12T03:41:01.287Z,13.80
2022-09-12T03:47:03.035Z,13.70
2022-09-12T03:53:04.765Z,13.70
2022-09-12T03:59:06.856Z,13.70
2022-09-12T04:05:08.881Z,13.70
2022-09-12T04:11:12.868Z,13.70
2022-09-12T04:17:15.465Z,13.60
2022-09-12T04:23:17.213Z,13.40
2022-09-12T04:29:19.120Z,13.50
2022-09-12T04:35:20.861Z,13.40
2022-09-12T04:41:26.071Z,13.40
2022-09-12T04:47:28.268Z,13.40
2022-09-12T04:53:29.941Z,13.40
2022-09-12T04:59:31.622Z,13.40
2022-09-12T05:05:33.321Z,13.40
2022-09-12T05:12:02.815Z,13.40
2022-09-12T05:17:59.492Z,13.40
2022-09-12T05:24:01.290Z,13.30
2022-09-12T05:30:03.118Z,13.20
2022-09-12T05:36:07.073Z,13.10
2022-09-12T05:42:09.202Z,13.00
2022-09-12T05:48:10.954Z,13.00
2022-09-12T05:54:15.388Z,13.00
2022-09-12T06:00:17.705Z,13.00
2022-09-12T06:06:21.621Z,13.20
2022-09-12T06:12:23.558Z,13.30
2022-09-12T06:18:25.243Z,13.20
2022-09-12T06:24:27.405Z,13.10
2022-09-12T06:30:29.160Z,13.10
2022-09-12T06:36:33.807Z,13.20
2022-09-12T06:42:35.474Z,13.20
2022-09-12T06:48:41.537Z,13.20
2022-09-12T06:54:43.633Z,13.00
2022-09-12T07:00:45.421Z,13.30
2022-09-12T07:06:47.797Z,13.40
2022-09-12T07:12:49.455Z,13.60
2022-09-12T07:18:53.360Z,13.50
2022-09-12T07:24:55.744Z,13.70
2022-09-12T07:30:58.212Z,13.80
2022-09-12T07:36:59.899Z,14.10
2022-09-12T07:43:01.581Z,14.20
2022-09-12T07:49:03.324Z,14.50
2022-09-12T07:55:05.375Z,14.60
2022-09-12T08:01:23.159Z,14.60
2022-09-12T08:07:24.877Z,14.90
2022-09-12T08:13:28.529Z,15.00
2022-09-12T08:19:31.535Z,15.30
2022-09-12T08:25:34.381Z,15.40
2022-09-12T08:31:39.174Z,15.70
2022-09-12T08:37:41.076Z,16.10
2022-09-12T08:43:56.072Z,16.30
2022-09-12T08:50:10.419Z,16.50
2022-09-12T08:56:12.543Z,17.00
2022-09-12T09:02:29.544Z,17.40
2022-09-12T09:09:08.301Z,17.70
2022-09-12T09:15:35.063Z,17.80
2022-09-12T09:21:54.700Z,18.00
2022-09-12T09:28:06.007Z,18.20
2022-09-12T09:34:20.163Z,18.30
2022-09-12T09:40:27.541Z,18.50
2022-09-12T09:46:29.465Z,18.80
2022-09-12T09:52:32.392Z,18.90
2022-09-12T09:58:35.438Z,18.90
2022-09-12T10:04:41.666Z,19.10
2022-09-12T10:11:01.824Z,19.20
2022-09-12T10:17:46.506Z,19.20
2022-09-12T10:23:57.681Z,19.20
2022-09-12T10:30:19.999Z,19.30
2022-09-12T10:36:23.613Z,19.40
2022-09-12T10:42:44.322Z,19.60
2022-09-12T10:48:51.060Z,19.60
2022-09-12T10:54:53.613Z,19.60
2022-09-12T11:01:07.738Z,19.70
2022-09-12T11:07:34.381Z,20.00
2022-09-12T11:13:51.027Z,20.00
2022-09-12T11:20:09.972Z,20.40
2022-09-12T11:26:30.162Z,20.80
2022-09-12T11:33:09.272Z,21.10
2022-09-12T11:39:43.420Z,21.50
2022-09-12T11:45:46.463Z,21.80
2022-09-12T11:51:51.301Z,22.10
2022-09-12T11:57:58.534Z,21.90
2022-09-12T12:04:06.308Z,22.40
2022-09-12T12:10:41.784Z,22.10
2022-09-12T12:16:44.204Z,22.30
2022-09-12T12:22:55.381Z,22.60
2022-09-12T12:28:59.130Z,22.60
2022-09-12T12:35:36.460Z,22.50
2022-09-12T12:41:43.037Z,22.80
2022-09-12T12:47:57.842Z,22.90
2022-09-12T12:54:01.343Z,23.30
2022-09-12T13:00:28.343Z,23.60
2022-09-12T13:06:42.200Z,23.50
2022-09-12T13:12:47.635Z,24.00
2022-09-12T13:18:50.025Z,23.90
2022-09-12T13:24:52.547Z,23.70
2022-09-12T13:31:11.456Z,23.70
2022-09-12T13:37:27.934Z,23.50
2022-09-12T13:43:48.215Z,23.50
2022-09-12T13:49:50.299Z,23.50
2022-09-12T13:55:56.526Z,23.30
2022-09-12T14:01:58.381Z,23.50
2022-09-12T14:08:04.568Z,23.70
2022-09-12T14:14:18.364Z,23.30
2022-09-12T14:20:23.346Z,23.20
2022-09-12T14:26:26.295Z,23.20
2022-09-12T14:32:28.029Z,23.00
2022-09-12T14:38:37.394Z,22.80
2022-09-12T14:44:40.834Z,22.80
2022-09-12T14:50:42.461Z,22.80
2022-09-12T14:56:52.849Z,22.80
2022-09-12T15:02:54.607Z,22.70
2022-09-12T15:08:57.881Z,23.00
2022-09-12T15:15:16.297Z,23.10
2022-09-12T15:21:19.752Z,23.20
2022-09-12T15:27:21.452Z,23.40
2022-09-12T15:33:24.726Z,23.20
2022-09-12T15:39:27.523Z,23.10
2022-09-12T15:45:31.030Z,23.10
2022-09-12T15:51:33.277Z,23.00
2022-09-12T15:57:34.860Z,23.00
2022-09-12T16:03:36.498Z,22.70
2022-09-12T16:09:38.152Z,22.60
2022-09-12T16:15:40.053Z,22.70
2022-09-12T16:21:41.688Z,22.40
2022-09-12T16:27:43.685Z,22.30
2022-09-12T16:33:45.419Z,22.30
2022-09-12T16:39:48.885Z,22.10
2022-09-12T16:45:50.595Z,21.90
2022-09-12T16:51:52.213Z,21.80
2022-09-12T16:57:54.222Z,21.60
2022-09-12T17:03:56.647Z,21.60
2022-09-12T17:09:58.361Z,21.40
2022-09-12T17:15:59.987Z,21.40
2022-09-12T17:22:01.740Z,21.00
2022-09-12T17:28:05.617Z,20.80
2022-09-12T17:34:07.282Z,20.70
2022-09-12T17:40:09.512Z,20.50
2022-09-12T17:46:11.769Z,20.40
2022-09-12T17:52:13.388Z,20.30
2022-09-12T17:58:14.997Z,20.00
2022-09-12T18:04:17.192Z,19.70
2022-09-12T18:10:18.785Z,19.50
2022-09-12T18:16:20.439Z,19.40
2022-09-12T18:22:22.071Z,19.30
2022-09-12T18:28:23.897Z,19.40
2022-09-12T18:34:25.626Z,19.50
2022-09-12T18:40:28.388Z,19.50
2022-09-12T18:46:31.265Z,19.40
2022-09-12T18:52:32.912Z,19.30
2022-09-12T18:58:35.731Z,19.40
2022-09-12T19:04:37.461Z,19.30
2022-09-12T19:10:39.257Z,19.20
2022-09-12T19:16:41.231Z,19.20
2022-09-12T19:22:42.893Z,19.10
2022-09-12T19:28:45.386Z,19.10
2022-09-12T19:34:47.049Z,19.00
2022-09-12T19:40:58.536Z,19.00
2022-09-12T19:47:00.385Z,18.90
2022-09-12T19:53:01.986Z,18.90
2022-09-12T19:59:03.641Z,18.70
2022-09-12T20:05:05.613Z,18.70
2022-09-12T20:11:07.353Z,18.70
2022-09-12T20:17:08.956Z,18.60
2022-09-12T20:23:10.524Z,18.60
2022-09-12T20:29:12.220Z,18.50
2022-09-12T20:35:13.850Z,18.50
2022-09-12T20:41:15.907Z,18.40
2022-09-12T20:47:17.463Z,18.40
2022-09-12T20:53:19.107Z,18.30
2022-09-12T20:59:21.784Z,18.30
2022-09-12T21:05:23.577Z,18.20
2022-09-12T21:11:25.287Z,18.20
2022-09-12T21:17:26.854Z,18.10
2022-09-12T21:23:28.516Z,18.10
2022-09-12T21:29:30.078Z,18.10
2022-09-12T21:35:34.027Z,18.10
2022-09-12T21:41:35.709Z,18.20
2022-09-12T21:47:39.085Z,18.20
2022-09-12T21:53:41.239Z,18.20
2022-09-12T21:59:42.795Z,18.20
2022-09-12T22:05:44.427Z,18.20
2022-09-12T22:11:46.870Z,18.20
2022-09-12T22:17:48.547Z,18.20
2022-09-12T22:24:09.154Z,18.20
2022-09-12T22:30:10.990Z,18.20
2022-09-12T22:36:13.124Z,18.00
2022-09-12T22:42:14.784Z,18.10
2022-09-12T22:48:17.151Z,18.10
2022-09-12T22:54:18.925Z,18.00
2022-09-12T23:00:20.556Z,18.00
2022-09-12T23:06:22.140Z,17.90
2022-09-12T23:12:23.747Z,17.90
2022-09-12T23:18:25.901Z,18.00
2022-09-12T23:24:27.475Z,17.90
2022-09-12T23:30:29.143Z,17.90
2022-09-12T23:36:31.080Z,18.00
2022-09-12T23:42:32.689Z,18.00
2022-09-12T23:48:35.413Z,18.20
2022-09-12T23:54:37.061Z,18.20
